VNKT/KTM METAR and TAF weather

Enter ICAO airport designator
Station Type Date Time Source
VNKT METAR 2020/01/24 09:20 UTC NOAA

VNKT 240920Z 21010KT 8000 FEW020 13/06 Q1014 NOSIG


Station Type Date Time Source
VNKT Decoded METAR 2020/01/24 09:20 UTC NOAA

Kathmandu Airport, Nepal (VNKT) 27-42N 085-22E 1337M
Jan 24, 2020 - 04:20 AM EST / 2020.01.24 0920 UTC
Wind: from the SSW (210 degrees) at 12 MPH (10 KT):0
Visibility: 4 mile(s):0
Sky conditions: mostly clear
Temperature: 55 F (13 C)
Dew Point: 42 F (6 C)
Relative Humidity: 62%
Pressure (altimeter): 29.94 in. Hg (1014 hPa)
ob: VNKT 240920Z 21010KT 8000 FEW020 13/06 Q1014 NOSIG
cycle: 9

Station Type Date Time Source
VNKT TAF 2020/01/24 06:42 UTC NOAA

TAF VNKT 240500Z 2406/2506 13008KT 7000 FEW020 PROB40 2406/2412 26012KT FEW025 SCT100
BECMG 2414/2415 11003KT 6000 FEW015
BECMG 2500/2502 VRB02KT 3000 BR FEW010 PROB40 2501/2503 1500 BR
BECMG 2504/2505 13004KT 5000 BR/HZ FEW015

Example: see airport list